sensor_id;sensor_type;location;lat;lon;timestamp;P1;durP1;ratioP1;P2;durP2;ratioP2
54261;SDS011;40174;52.364;6.452;2022-08-21T00:00:40;4.43;;;1.77;;
54261;SDS011;40174;52.364;6.452;2022-08-21T00:03:08;4.18;;;2.50;;
54261;SDS011;40174;52.364;6.452;2022-08-21T00:05:36;3.08;;;1.40;;
54261;SDS011;40174;52.364;6.452;2022-08-21T00:08:04;6.63;;;1.50;;
54261;SDS011;40174;52.364;6.452;2022-08-21T00:10:31;4.10;;;1.67;;
54261;SDS011;40174;52.364;6.452;2022-08-21T00:13:01;4.32;;;1.90;;
54261;SDS011;40174;52.364;6.452;2022-08-21T00:15:28;8.80;;;2.20;;
54261;SDS011;40174;52.364;6.452;2022-08-21T00:17:57;5.50;;;2.00;;
54261;SDS011;40174;52.364;6.452;2022-08-21T00:20:24;5.03;;;2.03;;
54261;SDS011;40174;52.364;6.452;2022-08-21T00:22:51;7.55;;;2.28;;
54261;SDS011;40174;52.364;6.452;2022-08-21T00:25:18;6.63;;;2.42;;
54261;SDS011;40174;52.364;6.452;2022-08-21T00:27:44;9.25;;;2.90;;
54261;SDS011;40174;52.364;6.452;2022-08-21T00:30:13;7.53;;;2.85;;
54261;SDS011;40174;52.364;6.452;2022-08-21T00:32:41;12.00;;;3.33;;
54261;SDS011;40174;52.364;6.452;2022-08-21T00:35:08;10.27;;;2.95;;
54261;SDS011;40174;52.364;6.452;2022-08-21T00:37:37;7.28;;;2.40;;
54261;SDS011;40174;52.364;6.452;2022-08-21T00:40:06;8.32;;;3.20;;
54261;SDS011;40174;52.364;6.452;2022-08-21T00:42:34;7.93;;;3.25;;
54261;SDS011;40174;52.364;6.452;2022-08-21T00:45:02;8.75;;;3.33;;
54261;SDS011;40174;52.364;6.452;2022-08-21T00:47:31;10.20;;;4.18;;
54261;SDS011;40174;52.364;6.452;2022-08-21T00:49:57;15.75;;;6.47;;
54261;SDS011;40174;52.364;6.452;2022-08-21T00:52:25;21.42;;;9.90;;
54261;SDS011;40174;52.364;6.452;2022-08-21T00:54:55;25.15;;;8.98;;
54261;SDS011;40174;52.364;6.452;2022-08-21T00:57:26;39.78;;;17.33;;
54261;SDS011;40174;52.364;6.452;2022-08-21T00:59:57;34.10;;;17.20;;
54261;SDS011;40174;52.364;6.452;2022-08-21T01:02:26;22.73;;;11.70;;
54261;SDS011;40174;52.364;6.452;2022-08-21T01:04:54;28.20;;;12.07;;
54261;SDS011;40174;52.364;6.452;2022-08-21T01:07:21;18.27;;;9.25;;
54261;SDS011;40174;52.364;6.452;2022-08-21T01:09:47;16.67;;;6.72;;
54261;SDS011;40174;52.364;6.452;2022-08-21T01:12:15;10.65;;;4.63;;
54261;SDS011;40174;52.364;6.452;2022-08-21T01:14:42;7.43;;;3.55;;
54261;SDS011;40174;52.364;6.452;2022-08-21T01:17:09;8.23;;;3.20;;
54261;SDS011;40174;52.364;6.452;2022-08-21T01:19:37;5.38;;;2.83;;
54261;SDS011;40174;52.364;6.452;2022-08-21T01:22:05;8.27;;;2.50;;
54261;SDS011;40174;52.364;6.452;2022-08-21T01:24:32;5.97;;;2.13;;
54261;SDS011;40174;52.364;6.452;2022-08-21T01:26:59;5.15;;;1.77;;
54261;SDS011;40174;52.364;6.452;2022-08-21T01:29:28;8.00;;;2.75;;
54261;SDS011;40174;52.364;6.452;2022-08-21T01:31:58;5.15;;;2.60;;
54261;SDS011;40174;52.364;6.452;2022-08-21T01:34:25;9.07;;;2.42;;
54261;SDS011;40174;52.364;6.452;2022-08-21T01:43:35;5.95;;;2.05;;
54261;SDS011;40174;52.364;6.452;2022-08-21T01:46:02;5.50;;;1.92;;
54261;SDS011;40174;52.364;6.452;2022-08-21T01:48:28;11.75;;;1.88;;
54261;SDS011;40174;52.364;6.452;2022-08-21T01:50:55;6.88;;;1.80;;
54261;SDS011;40174;52.364;6.452;2022-08-21T01:53:22;3.88;;;1.92;;
54261;SDS011;40174;52.364;6.452;2022-08-21T01:55:48;6.32;;;2.17;;
54261;SDS011;40174;52.364;6.452;2022-08-21T01:58:16;6.60;;;1.52;;
54261;SDS011;40174;52.364;6.452;2022-08-21T02:00:43;5.07;;;2.17;;
54261;SDS011;40174;52.364;6.452;2022-08-21T02:03:09;6.20;;;2.00;;
54261;SDS011;40174;52.364;6.452;2022-08-21T02:05:36;7.40;;;2.50;;
54261;SDS011;40174;52.364;6.452;2022-08-21T02:08:02;10.15;;;2.28;;
54261;SDS011;40174;52.364;6.452;2022-08-21T02:10:31;6.68;;;2.30;;
54261;SDS011;40174;52.364;6.452;2022-08-21T02:12:58;5.10;;;2.10;;
54261;SDS011;40174;52.364;6.452;2022-08-21T02:15:27;5.40;;;2.50;;
54261;SDS011;40174;52.364;6.452;2022-08-21T02:17:54;7.53;;;2.30;;
54261;SDS011;40174;52.364;6.452;2022-08-21T02:20:23;9.52;;;2.75;;
54261;SDS011;40174;52.364;6.452;2022-08-21T02:22:52;7.28;;;2.60;;
54261;SDS011;40174;52.364;6.452;2022-08-21T02:25:20;4.97;;;2.28;;
54261;SDS011;40174;52.364;6.452;2022-08-21T02:27:48;5.10;;;2.22;;
54261;SDS011;40174;52.364;6.452;2022-08-21T02:30:16;4.80;;;2.10;;
54261;SDS011;40174;52.364;6.452;2022-08-21T02:32:46;5.30;;;2.67;;
54261;SDS011;40174;52.364;6.452;2022-08-21T02:35:12;8.80;;;2.58;;
54261;SDS011;40174;52.364;6.452;2022-08-21T02:37:46;6.63;;;2.53;;
54261;SDS011;40174;52.364;6.452;2022-08-21T02:42:42;8.23;;;2.30;;
54261;SDS011;40174;52.364;6.452;2022-08-21T02:45:09;7.25;;;2.42;;
54261;SDS011;40174;52.364;6.452;2022-08-21T02:47:36;5.03;;;2.10;;
54261;SDS011;40174;52.364;6.452;2022-08-21T02:50:05;7.00;;;3.03;;
54261;SDS011;40174;52.364;6.452;2022-08-21T02:52:33;5.38;;;2.50;;
54261;SDS011;40174;52.364;6.452;2022-08-21T02:54:59;5.97;;;2.97;;
54261;SDS011;40174;52.364;6.452;2022-08-21T02:57:26;7.38;;;2.55;;
54261;SDS011;40174;52.364;6.452;2022-08-21T02:59:53;7.70;;;2.65;;
54261;SDS011;40174;52.364;6.452;2022-08-21T03:02:19;5.75;;;2.47;;
54261;SDS011;40174;52.364;6.452;2022-08-21T03:04:47;4.72;;;2.20;;
54261;SDS011;40174;52.364;6.452;2022-08-21T03:07:14;5.03;;;2.40;;
54261;SDS011;40174;52.364;6.452;2022-08-21T03:09:41;5.63;;;2.28;;
54261;SDS011;40174;52.364;6.452;2022-08-21T03:12:08;5.50;;;2.53;;
54261;SDS011;40174;52.364;6.452;2022-08-21T03:14:34;6.80;;;2.55;;
54261;SDS011;40174;52.364;6.452;2022-08-21T03:17:01;9.95;;;2.47;;
54261;SDS011;40174;52.364;6.452;2022-08-21T03:19:27;5.72;;;2.63;;
54261;SDS011;40174;52.364;6.452;2022-08-21T03:21:54;7.75;;;2.30;;
54261;SDS011;40174;52.364;6.452;2022-08-21T03:24:21;5.70;;;2.17;;
54261;SDS011;40174;52.364;6.452;2022-08-21T03:26:48;9.50;;;2.72;;
54261;SDS011;40174;52.364;6.452;2022-08-21T03:29:14;8.85;;;3.03;;
54261;SDS011;40174;52.364;6.452;2022-08-21T03:31:41;5.95;;;2.60;;
54261;SDS011;40174;52.364;6.452;2022-08-21T03:34:08;6.80;;;2.40;;
54261;SDS011;40174;52.364;6.452;2022-08-21T03:36:35;6.88;;;2.67;;
54261;SDS011;40174;52.364;6.452;2022-08-21T03:39:01;7.47;;;2.30;;
54261;SDS011;40174;52.364;6.452;2022-08-21T03:41:30;7.35;;;3.10;;
54261;SDS011;40174;52.364;6.452;2022-08-21T03:43:56;8.07;;;2.40;;
54261;SDS011;40174;52.364;6.452;2022-08-21T03:46:24;8.98;;;2.90;;
54261;SDS011;40174;52.364;6.452;2022-08-21T03:48:50;5.85;;;2.55;;
54261;SDS011;40174;52.364;6.452;2022-08-21T03:51:18;8.77;;;3.08;;
54261;SDS011;40174;52.364;6.452;2022-08-21T03:53:44;5.88;;;2.78;;
54261;SDS011;40174;52.364;6.452;2022-08-21T03:56:11;7.75;;;2.58;;
54261;SDS011;40174;52.364;6.452;2022-08-21T03:58:39;8.80;;;2.80;;
54261;SDS011;40174;52.364;6.452;2022-08-21T04:01:06;9.93;;;2.90;;
54261;SDS011;40174;52.364;6.452;2022-08-21T04:03:34;4.70;;;2.30;;
54261;SDS011;40174;52.364;6.452;2022-08-21T04:06:02;8.57;;;2.78;;
54261;SDS011;40174;52.364;6.452;2022-08-21T04:08:28;6.63;;;2.42;;
54261;SDS011;40174;52.364;6.452;2022-08-21T04:10:56;10.00;;;2.88;;
54261;SDS011;40174;52.364;6.452;2022-08-21T04:13:24;6.88;;;2.85;;
54261;SDS011;40174;52.364;6.452;2022-08-21T04:15:53;8.73;;;2.92;;
54261;SDS011;40174;52.364;6.452;2022-08-21T04:18:19;6.32;;;2.45;;
54261;SDS011;40174;52.364;6.452;2022-08-21T04:20:47;11.07;;;3.45;;
54261;SDS011;40174;52.364;6.452;2022-08-21T04:23:16;8.48;;;3.45;;
54261;SDS011;40174;52.364;6.452;2022-08-21T04:25:43;6.40;;;2.78;;
54261;SDS011;40174;52.364;6.452;2022-08-21T04:28:09;5.40;;;2.53;;
54261;SDS011;40174;52.364;6.452;2022-08-21T04:30:36;7.82;;;2.72;;
54261;SDS011;40174;52.364;6.452;2022-08-21T04:33:04;7.63;;;2.85;;
54261;SDS011;40174;52.364;6.452;2022-08-21T04:35:31;7.65;;;3.00;;
54261;SDS011;40174;52.364;6.452;2022-08-21T04:37:58;7.60;;;3.40;;
54261;SDS011;40174;52.364;6.452;2022-08-21T04:40:25;6.10;;;2.55;;
54261;SDS011;40174;52.364;6.452;2022-08-21T04:42:53;10.98;;;3.15;;
54261;SDS011;40174;52.364;6.452;2022-08-21T04:45:22;7.85;;;3.20;;
54261;SDS011;40174;52.364;6.452;2022-08-21T04:47:50;5.40;;;2.45;;
54261;SDS011;40174;52.364;6.452;2022-08-21T04:50:19;10.68;;;2.70;;
54261;SDS011;40174;52.364;6.452;2022-08-21T04:53:02;7.88;;;2.80;;
54261;SDS011;40174;52.364;6.452;2022-08-21T04:55:30;9.38;;;2.80;;
54261;SDS011;40174;52.364;6.452;2022-08-21T04:57:56;7.03;;;2.90;;
54261;SDS011;40174;52.364;6.452;2022-08-21T05:00:23;12.20;;;3.10;;
54261;SDS011;40174;52.364;6.452;2022-08-21T05:02:51;9.52;;;2.97;;
54261;SDS011;40174;52.364;6.452;2022-08-21T05:05:22;6.32;;;2.33;;
54261;SDS011;40174;52.364;6.452;2022-08-21T05:07:50;7.95;;;2.63;;
54261;SDS011;40174;52.364;6.452;2022-08-21T05:10:18;6.97;;;2.60;;
54261;SDS011;40174;52.364;6.452;2022-08-21T05:12:44;5.90;;;2.13;;
54261;SDS011;40174;52.364;6.452;2022-08-21T05:15:11;9.70;;;2.72;;
54261;SDS011;40174;52.364;6.452;2022-08-21T05:17:39;6.40;;;2.67;;
54261;SDS011;40174;52.364;6.452;2022-08-21T05:20:06;6.47;;;2.47;;
54261;SDS011;40174;52.364;6.452;2022-08-21T05:22:34;7.18;;;2.50;;
54261;SDS011;40174;52.364;6.452;2022-08-21T05:25:01;5.55;;;2.72;;
54261;SDS011;40174;52.364;6.452;2022-08-21T05:27:28;11.43;;;2.97;;
54261;SDS011;40174;52.364;6.452;2022-08-21T05:29:55;7.88;;;2.72;;
54261;SDS011;40174;52.364;6.452;2022-08-21T05:32:21;12.25;;;2.97;;
54261;SDS011;40174;52.364;6.452;2022-08-21T05:34:48;6.25;;;2.55;;
54261;SDS011;40174;52.364;6.452;2022-08-21T05:37:15;10.50;;;3.50;;
54261;SDS011;40174;52.364;6.452;2022-08-21T05:39:43;7.97;;;3.05;;
54261;SDS011;40174;52.364;6.452;2022-08-21T05:42:10;9.57;;;3.33;;
54261;SDS011;40174;52.364;6.452;2022-08-21T05:44:37;10.70;;;3.25;;
54261;SDS011;40174;52.364;6.452;2022-08-21T05:47:04;6.63;;;2.55;;
54261;SDS011;40174;52.364;6.452;2022-08-21T05:49:32;7.03;;;3.03;;
54261;SDS011;40174;52.364;6.452;2022-08-21T05:51:59;4.75;;;2.50;;
54261;SDS011;40174;52.364;6.452;2022-08-21T05:54:26;5.50;;;2.63;;
54261;SDS011;40174;52.364;6.452;2022-08-21T05:56:54;9.50;;;2.88;;
54261;SDS011;40174;52.364;6.452;2022-08-21T05:59:21;8.32;;;3.28;;
54261;SDS011;40174;52.364;6.452;2022-08-21T06:01:47;7.22;;;2.42;;
54261;SDS011;40174;52.364;6.452;2022-08-21T06:04:14;9.35;;;2.90;;
54261;SDS011;40174;52.364;6.452;2022-08-21T06:06:41;7.90;;;2.30;;
54261;SDS011;40174;52.364;6.452;2022-08-21T06:09:07;5.38;;;2.40;;
54261;SDS011;40174;52.364;6.452;2022-08-21T06:11:34;12.52;;;2.90;;
54261;SDS011;40174;52.364;6.452;2022-08-21T06:14:02;8.32;;;2.67;;
54261;SDS011;40174;52.364;6.452;2022-08-21T06:16:31;8.23;;;3.10;;
54261;SDS011;40174;52.364;6.452;2022-08-21T06:18:58;11.60;;;3.50;;
54261;SDS011;40174;52.364;6.452;2022-08-21T06:21:24;11.80;;;3.28;;
54261;SDS011;40174;52.364;6.452;2022-08-21T06:23:51;8.75;;;3.58;;
54261;SDS011;40174;52.364;6.452;2022-08-21T06:26:18;12.23;;;3.80;;
54261;SDS011;40174;52.364;6.452;2022-08-21T06:28:45;11.07;;;4.00;;
54261;SDS011;40174;52.364;6.452;2022-08-21T06:31:14;7.25;;;3.55;;
54261;SDS011;40174;52.364;6.452;2022-08-21T06:33:42;8.68;;;3.70;;
54261;SDS011;40174;52.364;6.452;2022-08-21T06:36:09;8.23;;;4.05;;
54261;SDS011;40174;52.364;6.452;2022-08-21T06:38:36;9.77;;;4.25;;
54261;SDS011;40174;52.364;6.452;2022-08-21T06:41:03;11.32;;;4.28;;
54261;SDS011;40174;52.364;6.452;2022-08-21T06:43:30;9.20;;;4.13;;
54261;SDS011;40174;52.364;6.452;2022-08-21T06:45:57;11.48;;;4.20;;
54261;SDS011;40174;52.364;6.452;2022-08-21T06:48:25;10.80;;;3.80;;
54261;SDS011;40174;52.364;6.452;2022-08-21T06:50:51;8.18;;;3.17;;
54261;SDS011;40174;52.364;6.452;2022-08-21T06:53:19;14.48;;;3.97;;
54261;SDS011;40174;52.364;6.452;2022-08-21T06:55:47;9.60;;;3.45;;
54261;SDS011;40174;52.364;6.452;2022-08-21T06:58:15;7.65;;;3.30;;
54261;SDS011;40174;52.364;6.452;2022-08-21T07:00:43;8.30;;;3.08;;
54261;SDS011;40174;52.364;6.452;2022-08-21T07:03:16;12.20;;;3.67;;
54261;SDS011;40174;52.364;6.452;2022-08-21T07:05:45;10.90;;;2.88;;
54261;SDS011;40174;52.364;6.452;2022-08-21T07:08:12;9.55;;;3.05;;
54261;SDS011;40174;52.364;6.452;2022-08-21T07:10:38;8.02;;;2.28;;
54261;SDS011;40174;52.364;6.452;2022-08-21T07:13:05;5.40;;;1.90;;
54261;SDS011;40174;52.364;6.452;2022-08-21T07:15:32;7.25;;;3.28;;
54261;SDS011;40174;52.364;6.452;2022-08-21T07:17:58;6.00;;;2.33;;
54261;SDS011;40174;52.364;6.452;2022-08-21T07:20:25;11.20;;;2.75;;
54261;SDS011;40174;52.364;6.452;2022-08-21T07:22:54;9.85;;;3.03;;
54261;SDS011;40174;52.364;6.452;2022-08-21T07:25:21;9.30;;;3.13;;
54261;SDS011;40174;52.364;6.452;2022-08-21T07:27:48;10.20;;;2.97;;
54261;SDS011;40174;52.364;6.452;2022-08-21T07:30:14;11.50;;;3.20;;
54261;SDS011;40174;52.364;6.452;2022-08-21T07:32:41;7.43;;;2.78;;
54261;SDS011;40174;52.364;6.452;2022-08-21T07:35:08;13.38;;;3.08;;
54261;SDS011;40174;52.364;6.452;2022-08-21T07:37:34;7.88;;;3.20;;
54261;SDS011;40174;52.364;6.452;2022-08-21T07:40:02;9.07;;;3.15;;
54261;SDS011;40174;52.364;6.452;2022-08-21T07:42:30;10.32;;;3.10;;
54261;SDS011;40174;52.364;6.452;2022-08-21T07:44:57;8.02;;;3.55;;
54261;SDS011;40174;52.364;6.452;2022-08-21T07:47:23;9.88;;;3.60;;
54261;SDS011;40174;52.364;6.452;2022-08-21T07:49:50;9.93;;;3.50;;
54261;SDS011;40174;52.364;6.452;2022-08-21T07:52:16;11.63;;;3.45;;
54261;SDS011;40174;52.364;6.452;2022-08-21T07:54:43;10.73;;;3.50;;
54261;SDS011;40174;52.364;6.452;2022-08-21T07:57:11;12.93;;;4.18;;
54261;SDS011;40174;52.364;6.452;2022-08-21T07:59:37;10.32;;;3.67;;
54261;SDS011;40174;52.364;6.452;2022-08-21T08:02:04;11.68;;;4.20;;
54261;SDS011;40174;52.364;6.452;2022-08-21T08:04:30;11.73;;;4.65;;
54261;SDS011;40174;52.364;6.452;2022-08-21T08:06:57;9.98;;;4.03;;
54261;SDS011;40174;52.364;6.452;2022-08-21T08:09:23;14.38;;;4.32;;
54261;SDS011;40174;52.364;6.452;2022-08-21T08:11:50;12.48;;;4.00;;
54261;SDS011;40174;52.364;6.452;2022-08-21T08:14:18;9.50;;;4.05;;
54261;SDS011;40174;52.364;6.452;2022-08-21T08:16:44;10.43;;;3.78;;
54261;SDS011;40174;52.364;6.452;2022-08-21T08:19:11;12.38;;;3.13;;
54261;SDS011;40174;52.364;6.452;2022-08-21T08:21:37;8.38;;;2.83;;
54261;SDS011;40174;52.364;6.452;2022-08-21T08:24:04;8.20;;;2.83;;
54261;SDS011;40174;52.364;6.452;2022-08-21T08:26:31;6.80;;;2.80;;
54261;SDS011;40174;52.364;6.452;2022-08-21T08:28:58;9.25;;;2.95;;
54261;SDS011;40174;52.364;6.452;2022-08-21T08:31:25;10.43;;;2.08;;
54261;SDS011;40174;52.364;6.452;2022-08-21T08:33:52;11.75;;;2.30;;
54261;SDS011;40174;52.364;6.452;2022-08-21T08:36:19;7.05;;;2.20;;
54261;SDS011;40174;52.364;6.452;2022-08-21T08:38:46;13.32;;;1.90;;
54261;SDS011;40174;52.364;6.452;2022-08-21T08:41:14;5.07;;;2.30;;
54261;SDS011;40174;52.364;6.452;2022-08-21T08:43:45;6.07;;;3.05;;
54261;SDS011;40174;52.364;6.452;2022-08-21T08:46:18;10.30;;;2.30;;
54261;SDS011;40174;52.364;6.452;2022-08-21T08:48:54;10.43;;;2.50;;
54261;SDS011;40174;52.364;6.452;2022-08-21T08:51:25;7.25;;;1.70;;
54261;SDS011;40174;52.364;6.452;2022-08-21T08:54:07;7.55;;;2.03;;
54261;SDS011;40174;52.364;6.452;2022-08-21T08:56:37;7.57;;;1.88;;
54261;SDS011;40174;52.364;6.452;2022-08-21T08:59:06;7.05;;;2.00;;
54261;SDS011;40174;52.364;6.452;2022-08-21T09:01:37;6.93;;;2.42;;
54261;SDS011;40174;52.364;6.452;2022-08-21T09:04:05;6.25;;;1.45;;
54261;SDS011;40174;52.364;6.452;2022-08-21T09:06:44;4.22;;;1.80;;
54261;SDS011;40174;52.364;6.452;2022-08-21T09:09:25;6.43;;;1.58;;
54261;SDS011;40174;52.364;6.452;2022-08-21T09:12:02;5.47;;;2.00;;
54261;SDS011;40174;52.364;6.452;2022-08-21T09:14:41;3.40;;;1.93;;
54261;SDS011;40174;52.364;6.452;2022-08-21T09:17:19;5.82;;;1.65;;
54261;SDS011;40174;52.364;6.452;2022-08-21T09:20:09;5.57;;;1.65;;
54261;SDS011;40174;52.364;6.452;2022-08-21T09:22:45;5.15;;;1.50;;
54261;SDS011;40174;52.364;6.452;2022-08-21T09:25:20;8.73;;;1.88;;
54261;SDS011;40174;52.364;6.452;2022-08-21T09:27:48;6.90;;;1.40;;
54261;SDS011;40174;52.364;6.452;2022-08-21T09:30:16;4.53;;;1.30;;
54261;SDS011;40174;52.364;6.452;2022-08-21T09:32:43;5.30;;;1.40;;
54261;SDS011;40174;52.364;6.452;2022-08-21T09:35:12;5.53;;;1.13;;
54261;SDS011;40174;52.364;6.452;2022-08-21T09:37:46;5.43;;;2.13;;
54261;SDS011;40174;52.364;6.452;2022-08-21T09:40:26;5.25;;;1.13;;
54261;SDS011;40174;52.364;6.452;2022-08-21T09:42:57;2.42;;;0.80;;
54261;SDS011;40174;52.364;6.452;2022-08-21T09:45:25;5.95;;;0.93;;
54261;SDS011;40174;52.364;6.452;2022-08-21T09:47:52;5.03;;;1.63;;
54261;SDS011;40174;52.364;6.452;2022-08-21T09:50:22;5.75;;;1.42;;
54261;SDS011;40174;52.364;6.452;2022-08-21T09:52:50;7.25;;;1.45;;
54261;SDS011;40174;52.364;6.452;2022-08-21T09:55:21;4.72;;;0.82;;
54261;SDS011;40174;52.364;6.452;2022-08-21T09:58:13;5.35;;;1.20;;
54261;SDS011;40174;52.364;6.452;2022-08-21T10:00:41;5.55;;;1.95;;
54261;SDS011;40174;52.364;6.452;2022-08-21T10:03:09;5.03;;;1.33;;
54261;SDS011;40174;52.364;6.452;2022-08-21T10:05:39;3.53;;;0.93;;
54261;SDS011;40174;52.364;6.452;2022-08-21T10:08:16;4.25;;;1.20;;
54261;SDS011;40174;52.364;6.452;2022-08-21T10:10:43;4.95;;;0.73;;
54261;SDS011;40174;52.364;6.452;2022-08-21T10:13:12;5.50;;;1.15;;
54261;SDS011;40174;52.364;6.452;2022-08-21T10:15:47;3.17;;;1.33;;
54261;SDS011;40174;52.364;6.452;2022-08-21T10:18:24;2.45;;;0.80;;
54261;SDS011;40174;52.364;6.452;2022-08-21T10:20:59;4.07;;;0.95;;
54261;SDS011;40174;52.364;6.452;2022-08-21T10:23:39;2.80;;;0.70;;
54261;SDS011;40174;52.364;6.452;2022-08-21T10:26:16;4.45;;;1.00;;
54261;SDS011;40174;52.364;6.452;2022-08-21T10:28:54;5.68;;;1.48;;
54261;SDS011;40174;52.364;6.452;2022-08-21T10:31:32;3.55;;;0.82;;
54261;SDS011;40174;52.364;6.452;2022-08-21T10:34:13;8.00;;;1.00;;
54261;SDS011;40174;52.364;6.452;2022-08-21T10:39:46;5.78;;;1.05;;
54261;SDS011;40174;52.364;6.452;2022-08-21T10:42:26;4.75;;;1.10;;
54261;SDS011;40174;52.364;6.452;2022-08-21T10:47:34;8.20;;;1.15;;
54261;SDS011;40174;52.364;6.452;2022-08-21T10:50:06;4.68;;;1.30;;
54261;SDS011;40174;52.364;6.452;2022-08-21T10:52:45;5.07;;;1.42;;
54261;SDS011;40174;52.364;6.452;2022-08-21T10:55:25;3.97;;;0.80;;
54261;SDS011;40174;52.364;6.452;2022-08-21T10:57:57;6.93;;;1.27;;
54261;SDS011;40174;52.364;6.452;2022-08-21T11:00:28;4.88;;;0.98;;
54261;SDS011;40174;52.364;6.452;2022-08-21T11:03:02;2.90;;;1.00;;
54261;SDS011;40174;52.364;6.452;2022-08-21T11:05:33;4.20;;;0.82;;
54261;SDS011;40174;52.364;6.452;2022-08-21T11:08:07;8.30;;;1.20;;
54261;SDS011;40174;52.364;6.452;2022-08-21T11:10:38;4.88;;;0.95;;
54261;SDS011;40174;52.364;6.452;2022-08-21T11:13:17;4.78;;;0.85;;
54261;SDS011;40174;52.364;6.452;2022-08-21T11:15:56;8.27;;;1.50;;
54261;SDS011;40174;52.364;6.452;2022-08-21T11:18:27;4.50;;;0.80;;
54261;SDS011;40174;52.364;6.452;2022-08-21T11:21:10;6.43;;;1.00;;
54261;SDS011;40174;52.364;6.452;2022-08-21T11:23:49;3.17;;;0.93;;
54261;SDS011;40174;52.364;6.452;2022-08-21T11:26:29;6.40;;;1.10;;
54261;SDS011;40174;52.364;6.452;2022-08-21T11:29:04;4.82;;;1.20;;
54261;SDS011;40174;52.364;6.452;2022-08-21T11:31:40;10.18;;;1.45;;
54261;SDS011;40174;52.364;6.452;2022-08-21T11:34:16;4.88;;;1.02;;
54261;SDS011;40174;52.364;6.452;2022-08-21T11:36:58;3.83;;;0.80;;
54261;SDS011;40174;52.364;6.452;2022-08-21T11:39:37;3.38;;;0.80;;
54261;SDS011;40174;52.364;6.452;2022-08-21T11:42:12;5.65;;;1.00;;
54261;SDS011;40174;52.364;6.452;2022-08-21T11:44:51;3.65;;;1.20;;
54261;SDS011;40174;52.364;6.452;2022-08-21T11:47:37;6.95;;;1.02;;
54261;SDS011;40174;52.364;6.452;2022-08-21T11:50:16;3.92;;;0.90;;
54261;SDS011;40174;52.364;6.452;2022-08-21T11:52:45;5.55;;;0.95;;
54261;SDS011;40174;52.364;6.452;2022-08-21T11:55:18;4.45;;;1.33;;
54261;SDS011;40174;52.364;6.452;2022-08-21T11:57:50;3.60;;;0.90;;
54261;SDS011;40174;52.364;6.452;2022-08-21T12:00:22;2.60;;;0.95;;
54261;SDS011;40174;52.364;6.452;2022-08-21T12:02:52;5.13;;;1.00;;
54261;SDS011;40174;52.364;6.452;2022-08-21T12:05:23;5.60;;;1.05;;
54261;SDS011;40174;52.364;6.452;2022-08-21T12:08:01;3.63;;;1.10;;
54261;SDS011;40174;52.364;6.452;2022-08-21T12:10:35;10.95;;;4.75;;
54261;SDS011;40174;52.364;6.452;2022-08-21T12:13:08;10.95;;;3.47;;
54261;SDS011;40174;52.364;6.452;2022-08-21T12:15:38;10.30;;;3.10;;
54261;SDS011;40174;52.364;6.452;2022-08-21T12:18:06;8.10;;;1.05;;
54261;SDS011;40174;52.364;6.452;2022-08-21T12:20:56;7.45;;;1.23;;
54261;SDS011;40174;52.364;6.452;2022-08-21T12:23:27;4.72;;;1.10;;
54261;SDS011;40174;52.364;6.452;2022-08-21T12:26:02;4.13;;;1.02;;
54261;SDS011;40174;52.364;6.452;2022-08-21T12:28:40;3.97;;;1.10;;
54261;SDS011;40174;52.364;6.452;2022-08-21T12:31:16;2.92;;;0.95;;
54261;SDS011;40174;52.364;6.452;2022-08-21T12:33:50;3.22;;;0.95;;
54261;SDS011;40174;52.364;6.452;2022-08-21T12:36:20;10.93;;;1.80;;
54261;SDS011;40174;52.364;6.452;2022-08-21T12:38:51;7.00;;;1.10;;
54261;SDS011;40174;52.364;6.452;2022-08-21T12:41:21;5.32;;;1.17;;
54261;SDS011;40174;52.364;6.452;2022-08-21T12:43:55;4.85;;;1.10;;
54261;SDS011;40174;52.364;6.452;2022-08-21T12:46:27;3.92;;;1.10;;
54261;SDS011;40174;52.364;6.452;2022-08-21T12:48:58;5.55;;;0.90;;
54261;SDS011;40174;52.364;6.452;2022-08-21T12:51:29;3.35;;;0.95;;
54261;SDS011;40174;52.364;6.452;2022-08-21T12:54:02;3.97;;;1.13;;
54261;SDS011;40174;52.364;6.452;2022-08-21T12:56:33;4.55;;;0.90;;
54261;SDS011;40174;52.364;6.452;2022-08-21T12:59:02;4.43;;;1.08;;
54261;SDS011;40174;52.364;6.452;2022-08-21T13:01:31;3.70;;;1.02;;
54261;SDS011;40174;52.364;6.452;2022-08-21T13:04:01;3.25;;;1.00;;
54261;SDS011;40174;52.364;6.452;2022-08-21T13:06:32;5.32;;;1.13;;
54261;SDS011;40174;52.364;6.452;2022-08-21T13:09:04;6.95;;;1.10;;
54261;SDS011;40174;52.364;6.452;2022-08-21T13:11:34;5.82;;;1.30;;
54261;SDS011;40174;52.364;6.452;2022-08-21T13:14:02;2.10;;;0.93;;
54261;SDS011;40174;52.364;6.452;2022-08-21T13:16:30;3.08;;;1.25;;
54261;SDS011;40174;52.364;6.452;2022-08-21T13:18:59;3.33;;;0.85;;
54261;SDS011;40174;52.364;6.452;2022-08-21T13:21:28;4.20;;;0.90;;
54261;SDS011;40174;52.364;6.452;2022-08-21T13:24:06;3.97;;;1.02;;
54261;SDS011;40174;52.364;6.452;2022-08-21T13:26:38;6.03;;;1.75;;
54261;SDS011;40174;52.364;6.452;2022-08-21T13:29:06;2.45;;;0.75;;
54261;SDS011;40174;52.364;6.452;2022-08-21T13:31:36;3.95;;;0.98;;
54261;SDS011;40174;52.364;6.452;2022-08-21T13:34:05;5.32;;;1.30;;
54261;SDS011;40174;52.364;6.452;2022-08-21T13:36:36;4.95;;;1.33;;
54261;SDS011;40174;52.364;6.452;2022-08-21T13:39:05;4.43;;;1.20;;
54261;SDS011;40174;52.364;6.452;2022-08-21T13:41:35;5.00;;;1.30;;
54261;SDS011;40174;52.364;6.452;2022-08-21T13:44:12;5.22;;;1.42;;
54261;SDS011;40174;52.364;6.452;2022-08-21T13:46:40;4.00;;;0.90;;
54261;SDS011;40174;52.364;6.452;2022-08-21T13:49:09;9.35;;;2.80;;
54261;SDS011;40174;52.364;6.452;2022-08-21T13:51:38;4.95;;;1.48;;
54261;SDS011;40174;52.364;6.452;2022-08-21T13:54:13;5.65;;;1.85;;
54261;SDS011;40174;52.364;6.452;2022-08-21T13:56:43;3.78;;;1.50;;
54261;SDS011;40174;52.364;6.452;2022-08-21T13:59:22;5.95;;;1.73;;
54261;SDS011;40174;52.364;6.452;2022-08-21T14:01:51;4.50;;;1.38;;
54261;SDS011;40174;52.364;6.452;2022-08-21T14:04:24;6.13;;;1.40;;
54261;SDS011;40174;52.364;6.452;2022-08-21T14:06:53;5.90;;;1.50;;
54261;SDS011;40174;52.364;6.452;2022-08-21T14:09:23;8.55;;;1.40;;
54261;SDS011;40174;52.364;6.452;2022-08-21T14:11:52;3.95;;;1.33;;
54261;SDS011;40174;52.364;6.452;2022-08-21T14:14:22;4.57;;;2.13;;
54261;SDS011;40174;52.364;6.452;2022-08-21T14:16:53;3.78;;;1.23;;
54261;SDS011;40174;52.364;6.452;2022-08-21T14:19:22;3.92;;;1.30;;
54261;SDS011;40174;52.364;6.452;2022-08-21T14:21:50;5.88;;;1.25;;
54261;SDS011;40174;52.364;6.452;2022-08-21T14:24:25;4.20;;;1.15;;
54261;SDS011;40174;52.364;6.452;2022-08-21T14:26:55;7.15;;;1.40;;
54261;SDS011;40174;52.364;6.452;2022-08-21T14:29:26;7.28;;;1.63;;
54261;SDS011;40174;52.364;6.452;2022-08-21T14:31:54;5.60;;;1.50;;
54261;SDS011;40174;52.364;6.452;2022-08-21T14:34:22;4.88;;;1.50;;
54261;SDS011;40174;52.364;6.452;2022-08-21T14:36:52;7.53;;;1.70;;
54261;SDS011;40174;52.364;6.452;2022-08-21T14:39:20;4.32;;;1.48;;
54261;SDS011;40174;52.364;6.452;2022-08-21T14:41:47;5.35;;;1.35;;
54261;SDS011;40174;52.364;6.452;2022-08-21T14:44:15;4.45;;;1.88;;
54261;SDS011;40174;52.364;6.452;2022-08-21T14:46:45;4.53;;;1.48;;
54261;SDS011;40174;52.364;6.452;2022-08-21T14:49:12;5.50;;;1.40;;
54261;SDS011;40174;52.364;6.452;2022-08-21T14:51:39;5.05;;;1.55;;
54261;SDS011;40174;52.364;6.452;2022-08-21T14:54:05;5.30;;;1.67;;
54261;SDS011;40174;52.364;6.452;2022-08-21T14:56:33;5.80;;;1.40;;
54261;SDS011;40174;52.364;6.452;2022-08-21T14:59:02;5.57;;;1.90;;
54261;SDS011;40174;52.364;6.452;2022-08-21T15:01:33;3.08;;;1.50;;
54261;SDS011;40174;52.364;6.452;2022-08-21T15:04:03;4.85;;;1.63;;
54261;SDS011;40174;52.364;6.452;2022-08-21T15:06:30;4.20;;;1.60;;
54261;SDS011;40174;52.364;6.452;2022-08-21T15:08:56;4.80;;;1.48;;
54261;SDS011;40174;52.364;6.452;2022-08-21T15:11:23;3.78;;;1.30;;
54261;SDS011;40174;52.364;6.452;2022-08-21T15:13:51;7.43;;;1.77;;